Tolona, Missouri
Current Conditions -  °F | °C
As of 1:15 PM on Friday 21 Nov 2014 (Local Time) from KEOK Reporting Station
Clear Clear  
Wind Chill: -2°   Ceiling: Unl
Heat Index:   Visibility: 10mi
Dew Point: -10°   Wind: 14mph
Humidity: 38%   Direction: 120°ESE
Pressure: 30.28"   Gusts: NA
Location:  40.0949°N, 91.8336°W
Report Text: KEOK 211915Z AUTO 12012KT 10SM CLR 03/M10 A3028 RMK AO2
Loading
Personal Weather Stations






























Interactive Weather Map New forecast layout! Learn more

10-Day Weather Forecast

Advertisements
Track Severe Weather on mobile